Time;durP1;ratioP1;P1;durP2;ratioP2;P2;SDS_P1;SDS_P2;PMS_P1;PMS_P2;Temp;Humidity;BMP_temperature;BMP_pressure;BME280_temperature;BME280_humidity;BME280_pressure;Samples;Min_cycle;Max_cycle;Signal;HPM_P1;HPM_P2
2023/05/07 00:01:36;;;;;;;20.13;9.85;;;14.30;99.90;;;;;;5070120;28;20059;-62
2023/05/07 00:04:03;;;;;;;19.83;9.95;;;14.30;99.90;;;;;;5070865;28;20025;-61
2023/05/07 00:06:28;;;;;;;16.65;9.98;;;14.40;99.90;;;;;;5066169;28;20555;-62
2023/05/07 00:08:54;;;;;;;26.77;10.68;;;14.40;99.90;;;;;;5072431;28;20127;-61
2023/05/07 00:11:20;;;;;;;19.15;11.68;;;14.30;99.90;;;;;;5070501;28;20056;-61
2023/05/07 00:13:47;;;;;;;26.23;11.32;;;14.30;99.90;;;;;;5070277;28;20040;-62
2023/05/07 00:16:12;;;;;;;21.98;11.23;;;14.30;99.90;;;;;;5065715;28;20020;-62
2023/05/07 00:18:38;;;;;;;22.98;11.60;;;14.30;99.90;;;;;;5069058;28;20032;-61
2023/05/07 00:21:04;;;;;;;24.10;10.32;;;14.30;99.90;;;;;;5066190;28;20403;-62
2023/05/07 00:23:29;;;;;;;24.60;10.80;;;14.30;99.90;;;;;;5070141;28;20511;-60
2023/05/07 00:25:56;;;;;;;19.73;11.30;;;14.30;99.90;;;;;;5069733;28;20105;-61
2023/05/07 00:28:21;;;;;;;20.67;10.43;;;14.30;99.90;;;;;;5073183;28;20039;-61
2023/05/07 00:30:47;;;;;;;18.00;10.15;;;14.30;99.90;;;;;;5066068;28;20028;-62
2023/05/07 00:33:12;;;;;;;20.75;10.70;;;14.30;99.90;;;;;;5069594;28;20028;-62
2023/05/07 00:35:38;;;;;;;23.70;11.85;;;14.30;99.90;;;;;;5072539;28;20389;-60
2023/05/07 00:38:04;;;;;;;22.02;10.90;;;14.20;99.90;;;;;;5072257;28;20044;-62
2023/05/07 00:40:29;;;;;;;19.75;10.32;;;14.20;99.90;;;;;;5074001;28;20035;-61
2023/05/07 00:42:57;;;;;;;19.92;10.27;;;14.20;99.90;;;;;;5076647;28;20550;-62
2023/05/07 00:45:27;;;;;;;21.58;9.98;;;14.20;99.90;;;;;;5074038;28;20024;-61
2023/05/07 00:47:55;;;;;;;25.45;11.68;;;14.20;99.90;;;;;;5074040;28;20048;-59
2023/05/07 00:50:22;;;;;;;24.63;10.43;;;14.20;99.90;;;;;;5076354;28;20404;-61
2023/05/07 00:52:47;;;;;;;21.13;10.93;;;14.20;99.90;;;;;;5076714;28;20039;-59
2023/05/07 00:55:14;;;;;;;22.35;11.68;;;14.20;99.90;;;;;;5076649;28;20096;-61
2023/05/07 00:57:41;;;;;;;22.92;11.27;;;14.20;99.90;;;;;;5073898;28;20494;-61
2023/05/07 01:00:12;;;;;;;22.88;10.35;;;14.20;99.90;;;;;;5071253;28;20115;-61
2023/05/07 01:02:38;;;;;;;15.25;9.82;;;14.20;99.90;;;;;;5069623;28;20031;-62
2023/05/07 01:05:06;;;;;;;16.92;9.50;;;14.30;99.90;;;;;;5075232;28;20091;-62
2023/05/07 01:07:33;;;;;;;12.93;8.80;;;14.30;99.90;;;;;;5075442;28;20042;-61
2023/05/07 01:10:00;;;;;;;15.50;9.23;;;14.20;99.90;;;;;;5073465;28;20025;-62
2023/05/07 01:12:27;;;;;;;13.35;8.43;;;14.20;99.90;;;;;;5076395;28;20023;-60
2023/05/07 01:14:53;;;;;;;17.35;8.63;;;14.30;99.90;;;;;;5075151;28;20031;-60
2023/05/07 01:17:19;;;;;;;14.50;7.75;;;14.20;99.90;;;;;;5075698;28;20392;-61
2023/05/07 01:19:44;;;;;;;10.77;7.95;;;14.20;99.90;;;;;;5074354;28;20032;-61
2023/05/07 01:22:11;;;;;;;11.75;7.57;;;14.30;99.90;;;;;;5076031;28;20027;-60
2023/05/07 01:24:37;;;;;;;11.18;7.10;;;14.30;99.90;;;;;;5074911;28;21083;-60
2023/05/07 01:27:03;;;;;;;15.98;8.05;;;14.30;99.90;;;;;;5075908;28;21094;-62
2023/05/07 01:29:29;;;;;;;10.32;7.57;;;14.30;99.90;;;;;;5071955;28;20043;-60
2023/05/07 01:31:58;;;;;;;11.02;6.93;;;14.30;99.90;;;;;;5074693;28;20722;-59
2023/05/07 01:34:26;;;;;;;10.77;6.60;;;14.30;99.90;;;;;;5074026;28;20142;-63
2023/05/07 01:36:55;;;;;;;11.38;7.28;;;14.40;99.90;;;;;;5073150;28;20055;-60
2023/05/07 01:39:23;;;;;;;15.98;6.63;;;14.40;99.90;;;;;;5076149;28;20476;-62
2023/05/07 01:41:49;;;;;;;7.03;5.95;;;14.30;99.90;;;;;;5072727;28;20180;-62
2023/05/07 01:44:15;;;;;;;10.50;6.55;;;14.30;99.90;;;;;;5076893;28;20040;-62
2023/05/07 01:46:40;;;;;;;10.90;6.13;;;14.20;99.90;;;;;;5072607;28;20021;-60
2023/05/07 01:49:06;;;;;;;7.72;5.82;;;14.20;99.90;;;;;;5071161;28;20048;-61
2023/05/07 01:51:33;;;;;;;11.50;6.55;;;14.20;99.90;;;;;;5069950;28;20032;-60
2023/05/07 01:53:58;;;;;;;11.05;6.22;;;14.20;99.90;;;;;;5069849;28;20024;-62
2023/05/07 01:56:24;;;;;;;10.90;5.68;;;14.20;99.90;;;;;;5072208;28;20535;-62
2023/05/07 01:58:51;;;;;;;12.43;6.22;;;14.20;99.90;;;;;;5067690;28;20025;-60
2023/05/07 02:01:17;;;;;;;10.88;6.60;;;14.10;99.90;;;;;;5072733;28;20024;-58
2023/05/07 02:03:43;;;;;;;8.50;5.90;;;14.10;99.90;;;;;;5071544;28;20117;-62
2023/05/07 02:06:09;;;;;;;19.58;7.03;;;14.10;99.90;;;;;;5072152;28;20080;-60
2023/05/07 02:08:34;;;;;;;11.60;6.63;;;14.10;99.90;;;;;;5070807;28;20043;-61
2023/05/07 02:11:01;;;;;;;11.75;6.05;;;14.10;99.90;;;;;;5070514;28;20025;-62
2023/05/07 02:13:32;;;;;;;12.90;7.50;;;14.10;99.90;;;;;;5069045;28;20055;-62
2023/05/07 02:15:57;;;;;;;8.93;6.13;;;14.00;99.90;;;;;;5070584;28;20016;-59
2023/05/07 02:18:23;;;;;;;12.85;5.95;;;14.00;99.90;;;;;;5069653;28;20090;-61
2023/05/07 02:20:48;;;;;;;19.60;6.65;;;14.00;99.90;;;;;;5069032;28;20031;-62
2023/05/07 02:23:14;;;;;;;14.30;6.22;;;14.00;99.90;;;;;;5071966;28;20492;-62
2023/05/07 02:25:40;;;;;;;9.15;5.43;;;14.00;99.90;;;;;;5070762;28;20495;-61
2023/05/07 02:28:05;;;;;;;13.80;5.55;;;14.00;99.90;;;;;;5074082;28;20488;-61
2023/05/07 02:30:31;;;;;;;10.10;6.00;;;14.00;99.90;;;;;;5063114;28;20079;-62
2023/05/07 02:32:57;;;;;;;15.27;6.10;;;13.90;99.90;;;;;;5071164;28;20037;-61
2023/05/07 02:35:24;;;;;;;13.55;6.82;;;13.90;99.90;;;;;;5071231;28;20033;-60
2023/05/07 02:37:50;;;;;;;7.97;6.15;;;13.90;99.90;;;;;;5073029;28;20115;-62
2023/05/07 02:40:15;;;;;;;9.10;6.07;;;13.90;99.90;;;;;;5071940;28;20107;-64
2023/05/07 02:42:41;;;;;;;8.80;5.78;;;13.90;99.90;;;;;;5070135;28;20048;-62
2023/05/07 02:45:07;;;;;;;13.13;5.70;;;13.90;99.90;;;;;;5070543;28;20119;-62
2023/05/07 02:47:32;;;;;;;14.38;6.60;;;13.90;99.90;;;;;;5071607;28;20032;-61
2023/05/07 02:49:58;;;;;;;10.85;6.68;;;13.90;99.90;;;;;;5068777;28;20020;-61
2023/05/07 02:52:24;;;;;;;10.13;5.80;;;13.90;99.90;;;;;;5070485;28;20029;-59
2023/05/07 02:54:49;;;;;;;12.82;5.25;;;13.80;99.90;;;;;;5069989;28;20029;-62
2023/05/07 02:57:15;;;;;;;9.82;5.50;;;13.90;99.90;;;;;;5070354;28;20016;-63
2023/05/07 02:59:41;;;;;;;12.60;5.80;;;13.90;99.90;;;;;;5068608;28;20024;-61
2023/05/07 03:02:06;;;;;;;8.13;5.50;;;14.00;99.90;;;;;;5070263;28;21487;-60
2023/05/07 03:04:32;;;;;;;8.93;5.93;;;13.90;99.90;;;;;;5066257;28;20028;-59
2023/05/07 03:06:57;;;;;;;10.05;5.93;;;14.00;99.90;;;;;;5079225;28;20096;-61
2023/05/07 03:09:23;;;;;;;9.40;5.68;;;14.00;99.90;;;;;;5063552;28;20484;-63
2023/05/07 03:11:49;;;;;;;12.88;5.97;;;13.90;99.90;;;;;;5072209;28;20070;-62
2023/05/07 03:14:14;;;;;;;10.70;6.25;;;13.90;99.90;;;;;;5071019;28;20407;-62
2023/05/07 03:16:40;;;;;;;8.65;6.20;;;13.90;99.90;;;;;;5068427;28;20087;-62
2023/05/07 03:19:05;;;;;;;14.25;8.13;;;13.90;99.90;;;;;;5066979;28;20056;-62
2023/05/07 03:21:33;;;;;;;9.35;5.70;;;13.80;99.90;;;;;;5071881;28;20082;-62
2023/05/07 03:23:59;;;;;;;10.05;6.25;;;13.80;99.90;;;;;;5069956;28;20020;-61
2023/05/07 03:26:25;;;;;;;11.13;5.82;;;13.80;99.90;;;;;;5071202;28;20575;-61
2023/05/07 03:28:50;;;;;;;8.00;5.38;;;13.80;99.90;;;;;;5062809;28;20029;-62
2023/05/07 03:31:16;;;;;;;10.18;6.65;;;13.80;99.90;;;;;;5071386;28;20073;-60
2023/05/07 03:33:53;;;;;;;8.45;6.03;;;13.70;99.90;;;;;;5071188;28;20036;-61
2023/05/07 03:36:19;;;;;;;8.90;5.53;;;13.70;99.90;;;;;;5068772;28;20031;-61
2023/05/07 03:38:45;;;;;;;14.10;8.38;;;13.60;99.90;;;;;;5068924;28;20560;-62
2023/05/07 03:41:11;;;;;;;13.60;6.38;;;13.60;99.90;;;;;;5070064;28;20029;-61
2023/05/07 03:43:36;;;;;;;9.52;6.38;;;13.50;99.90;;;;;;5070250;28;20024;-61
2023/05/07 03:46:02;;;;;;;8.80;6.28;;;13.50;99.90;;;;;;5070377;28;20519;-61
2023/05/07 03:48:27;;;;;;;21.05;6.88;;;13.40;99.90;;;;;;5069861;28;20043;-61
2023/05/07 03:50:53;;;;;;;10.13;6.60;;;13.50;99.90;;;;;;5070607;28;20039;-59
2023/05/07 03:53:18;;;;;;;9.93;6.07;;;13.40;99.90;;;;;;5068728;28;20044;-57
2023/05/07 03:55:44;;;;;;;10.90;5.95;;;13.40;99.90;;;;;;5070136;28;20043;-62
2023/05/07 03:58:10;;;;;;;9.13;5.55;;;13.30;99.90;;;;;;5070829;28;20081;-59
2023/05/07 04:00:38;;;;;;;9.35;6.38;;;13.30;99.90;;;;;;5070862;28;20117;-60
2023/05/07 04:03:04;;;;;;;11.85;5.25;;;13.30;99.90;;;;;;5066595;28;20074;-61
2023/05/07 04:05:30;;;;;;;11.23;6.22;;;13.30;99.90;;;;;;5067251;28;20029;-59
2023/05/07 04:07:57;;;;;;;10.00;6.20;;;13.40;99.90;;;;;;5068435;28;20016;-58
2023/05/07 04:10:23;;;;;;;9.15;5.32;;;13.30;99.90;;;;;;5068824;28;20039;-60
2023/05/07 04:12:48;;;;;;;11.27;6.25;;;13.40;99.90;;;;;;5068534;28;20111;-58
2023/05/07 04:15:14;;;;;;;11.38;7.05;;;13.30;99.90;;;;;;5066825;28;20044;-60
2023/05/07 04:17:41;;;;;;;9.55;5.85;;;13.30;99.90;;;;;;5069176;28;20028;-57
2023/05/07 04:20:10;;;;;;;11.25;6.38;;;13.40;99.90;;;;;;5068289;28;20082;-57
2023/05/07 04:22:36;;;;;;;7.93;5.22;;;13.40;99.90;;;;;;5069089;28;20388;-59
2023/05/07 04:25:02;;;;;;;7.88;5.25;;;13.50;99.90;;;;;;5070068;28;20028;-63
2023/05/07 04:27:28;;;;;;;8.60;5.63;;;13.60;99.90;;;;;;5071438;28;20069;-62
2023/05/07 04:29:55;;;;;;;9.23;6.18;;;13.60;99.90;;;;;;5064501;28;20337;-61
2023/05/07 04:32:21;;;;;;;7.28;5.35;;;13.60;99.90;;;;;;5069626;28;20024;-59
2023/05/07 04:34:47;;;;;;;7.95;5.45;;;13.60;99.90;;;;;;5067647;28;20025;-59
2023/05/07 04:37:13;;;;;;;8.57;5.53;;;13.70;99.90;;;;;;5069075;28;20118;-62
2023/05/07 04:39:38;;;;;;;7.68;5.70;;;13.70;99.90;;;;;;5069658;28;20035;-59
2023/05/07 04:42:04;;;;;;;9.82;6.10;;;13.70;99.90;;;;;;5070916;28;20085;-58
2023/05/07 04:44:30;;;;;;;10.30;6.22;;;13.70;99.90;;;;;;5067741;28;20027;-57
2023/05/07 04:46:56;;;;;;;9.45;5.72;;;13.70;99.90;;;;;;5068963;28;20043;-59
2023/05/07 04:49:22;;;;;;;12.88;5.78;;;13.70;99.90;;;;;;5067949;28;20029;-61
2023/05/07 04:51:47;;;;;;;14.27;5.78;;;13.70;99.90;;;;;;5068718;28;20028;-57
2023/05/07 04:54:13;;;;;;;9.80;6.13;;;13.80;99.90;;;;;;5067318;28;20039;-59
2023/05/07 04:56:38;;;;;;;9.93;5.57;;;13.80;99.90;;;;;;5068021;28;20032;-62
2023/05/07 04:59:04;;;;;;;12.73;6.28;;;13.80;99.90;;;;;;5065564;28;20096;-61
2023/05/07 05:01:30;;;;;;;8.07;5.78;;;13.80;99.90;;;;;;5066175;28;20020;-60
2023/05/07 05:03:55;;;;;;;10.13;6.57;;;13.80;99.90;;;;;;5066180;28;20071;-62
2023/05/07 05:06:21;;;;;;;7.35;5.45;;;13.90;99.90;;;;;;5067060;28;20078;-62
2023/05/07 05:08:46;;;;;;;7.55;5.57;;;13.90;99.90;;;;;;5066686;28;20500;-61
2023/05/07 05:11:12;;;;;;;12.02;6.22;;;13.90;99.90;;;;;;5069432;28;20021;-59
2023/05/07 05:13:37;;;;;;;17.77;7.22;;;14.00;99.90;;;;;;5068700;28;20051;-61
2023/05/07 05:16:03;;;;;;;16.85;7.20;;;14.10;99.90;;;;;;5069207;28;20051;-60
2023/05/07 05:18:28;;;;;;;9.95;5.75;;;14.10;99.90;;;;;;5066123;28;20025;-59
2023/05/07 05:20:54;;;;;;;9.48;5.63;;;14.20;99.90;;;;;;5068267;28;20105;-62
2023/05/07 05:23:20;;;;;;;11.30;6.57;;;14.20;99.90;;;;;;5069491;28;20032;-62
2023/05/07 05:25:45;;;;;;;11.10;5.90;;;14.20;99.90;;;;;;5069347;28;20448;-63
2023/05/07 05:28:11;;;;;;;12.13;5.72;;;14.30;99.90;;;;;;5070497;28;20029;-60
2023/05/07 05:30:36;;;;;;;8.88;5.47;;;14.30;99.90;;;;;;5070592;28;20024;-63
2023/05/07 05:33:02;;;;;;;11.70;5.93;;;14.40;99.90;;;;;;5070869;28;20025;-62
2023/05/07 05:35:27;;;;;;;8.65;5.63;;;14.50;99.90;;;;;;5067033;28;20090;-62
2023/05/07 05:37:53;;;;;;;14.52;6.20;;;14.60;99.90;;;;;;5072054;28;20039;-62
2023/05/07 05:40:19;;;;;;;8.88;5.72;;;14.60;99.90;;;;;;5067433;28;20025;-62
2023/05/07 05:42:44;;;;;;;9.23;5.65;;;14.60;99.90;;;;;;5071503;28;20043;-62
2023/05/07 05:45:10;;;;;;;12.02;5.32;;;14.60;99.90;;;;;;5073713;28;20021;-62
2023/05/07 05:47:35;;;;;;;8.75;5.35;;;14.70;99.90;;;;;;5071868;28;20032;-62
2023/05/07 05:50:01;;;;;;;6.75;4.90;;;14.70;99.90;;;;;;5068521;28;20021;-62
2023/05/07 05:52:26;;;;;;;12.00;5.70;;;14.80;99.90;;;;;;5071771;28;20491;-61
2023/05/07 05:54:53;;;;;;;12.48;5.43;;;14.80;99.90;;;;;;5073976;28;20024;-62
2023/05/07 05:57:18;;;;;;;18.60;5.43;;;14.80;99.90;;;;;;5070897;28;20108;-58
2023/05/07 05:59:44;;;;;;;7.63;4.82;;;14.80;99.90;;;;;;5072325;28;20115;-62
2023/05/07 06:02:10;;;;;;;8.88;4.43;;;14.80;99.90;;;;;;5070126;28;20027;-61
2023/05/07 06:04:35;;;;;;;6.55;5.00;;;14.80;99.90;;;;;;5071158;28;20086;-64
2023/05/07 06:07:01;;;;;;;9.63;5.20;;;14.90;99.90;;;;;;5069659;28;20035;-62
2023/05/07 06:09:26;;;;;;;7.60;4.65;;;14.90;99.90;;;;;;5071997;28;20392;-62
2023/05/07 06:11:52;;;;;;;5.55;3.72;;;14.90;99.90;;;;;;5071753;28;20032;-63
2023/05/07 06:14:17;;;;;;;9.25;4.13;;;15.00;99.90;;;;;;5072415;28;20361;-61
2023/05/07 06:16:44;;;;;;;7.18;3.92;;;15.00;99.90;;;;;;5070797;28;20036;-62
2023/05/07 06:19:09;;;;;;;6.22;4.25;;;15.10;99.90;;;;;;5070653;28;20032;-63
2023/05/07 06:21:35;;;;;;;7.15;3.90;;;15.10;99.90;;;;;;5072424;28;20012;-62
2023/05/07 06:24:00;;;;;;;7.10;3.10;;;15.10;99.90;;;;;;5070722;28;20025;-60
2023/05/07 06:26:26;;;;;;;5.05;3.33;;;15.20;99.90;;;;;;5072651;28;20156;-60
2023/05/07 06:28:52;;;;;;;8.45;2.83;;;15.20;99.90;;;;;;5072409;28;20024;-62
2023/05/07 06:31:22;;;;;;;6.00;3.17;;;15.30;99.90;;;;;;5070162;28;20021;-63
2023/05/07 06:33:48;;;;;;;11.85;3.03;;;15.30;99.90;;;;;;5069770;28;20545;-61
2023/05/07 06:36:14;;;;;;;4.15;3.40;;;15.30;99.90;;;;;;5071738;28;20025;-61
2023/05/07 06:38:39;;;;;;;6.95;3.10;;;15.30;99.90;;;;;;5069941;28;20032;-61
2023/05/07 06:41:06;;;;;;;5.88;2.90;;;15.30;99.90;;;;;;5071186;28;20024;-60
2023/05/07 06:43:32;;;;;;;7.05;2.75;;;15.30;99.90;;;;;;5068591;28;20055;-61
2023/05/07 06:45:57;;;;;;;4.47;2.80;;;15.40;99.90;;;;;;5071320;28;20024;-61
2023/05/07 06:48:23;;;;;;;3.53;2.88;;;15.40;99.90;;;;;;5069004;28;20040;-63
2023/05/07 06:50:48;;;;;;;7.38;3.08;;;15.40;99.90;;;;;;5066689;28;20039;-62
2023/05/07 06:53:14;;;;;;;5.07;2.63;;;15.40;99.90;;;;;;5073674;28;20028;-63
2023/05/07 06:55:40;;;;;;;3.80;2.92;;;15.40;99.90;;;;;;5071922;28;20499;-63
2023/05/07 06:58:06;;;;;;;5.07;2.85;;;15.40;99.90;;;;;;5070153;28;20024;-63
2023/05/07 07:00:31;;;;;;;5.72;2.33;;;15.40;99.90;;;;;;5069735;28;20024;-62
2023/05/07 07:02:57;;;;;;;7.13;2.80;;;15.40;99.90;;;;;;5072497;28;20020;-64
2023/05/07 07:05:23;;;;;;;4.20;2.40;;;15.50;99.90;;;;;;5069464;28;20400;-61
2023/05/07 07:07:52;;;;;;;7.28;2.38;;;15.50;99.90;;;;;;5071526;28;20039;-61
2023/05/07 07:10:21;;;;;;;7.25;2.60;;;15.50;99.90;;;;;;5069975;28;20017;-62
2023/05/07 07:12:46;;;;;;;9.27;2.70;;;15.60;99.90;;;;;;5070267;28;20025;-62
2023/05/07 07:15:12;;;;;;;7.03;3.33;;;15.70;99.90;;;;;;5068839;28;20376;-62
2023/05/07 07:17:38;;;;;;;13.07;2.38;;;15.80;99.90;;;;;;5071270;28;20485;-61
2023/05/07 07:20:04;;;;;;;5.07;2.78;;;15.70;99.90;;;;;;5068502;28;20035;-60
2023/05/07 07:22:30;;;;;;;11.07;2.47;;;15.80;99.90;;;;;;5067052;28;20074;-60
2023/05/07 07:24:55;;;;;;;6.85;2.30;;;15.90;99.90;;;;;;5062135;28;20036;-57
2023/05/07 07:27:21;;;;;;;4.15;2.40;;;16.00;99.90;;;;;;5068416;28;20032;-62
2023/05/07 07:29:46;;;;;;;6.40;2.72;;;16.00;99.90;;;;;;5067937;28;20024;-60
2023/05/07 07:32:12;;;;;;;5.38;2.33;;;16.10;99.90;;;;;;5070603;28;20405;-60
2023/05/07 07:34:37;;;;;;;6.22;1.73;;;16.10;99.90;;;;;;5067534;28;20492;-59
2023/05/07 07:37:05;;;;;;;5.25;2.60;;;16.30;99.90;;;;;;5069222;28;20036;-64
2023/05/07 07:39:32;;;;;;;4.80;2.20;;;16.40;99.90;;;;;;5065117;28;20033;-64
2023/05/07 07:41:57;;;;;;;6.78;2.35;;;16.50;99.90;;;;;;5065750;28;20031;-63
2023/05/07 07:44:23;;;;;;;5.10;2.00;;;16.60;99.90;;;;;;5070052;28;20111;-62
2023/05/07 07:46:48;;;;;;;4.03;2.13;;;16.60;99.90;;;;;;5066141;28;20033;-57
2023/05/07 07:49:14;;;;;;;2.70;2.03;;;16.70;99.90;;;;;;5069632;28;20496;-62
2023/05/07 07:51:40;;;;;;;5.43;2.08;;;16.80;99.90;;;;;;5070579;28;20020;-63
2023/05/07 07:54:06;;;;;;;7.53;2.10;;;16.90;99.90;;;;;;5067157;28;20024;-60
2023/05/07 07:56:35;;;;;;;4.60;2.30;;;17.00;99.90;;;;;;5063658;28;20021;-62
2023/05/07 07:59:01;;;;;;;2.55;1.95;;;17.10;99.90;;;;;;5063141;28;20020;-63
2023/05/07 08:01:29;;;;;;;3.97;2.28;;;17.10;99.90;;;;;;5069760;28;20031;-63
2023/05/07 08:03:54;;;;;;;6.90;2.53;;;17.30;99.90;;;;;;5061690;28;20032;-64
2023/05/07 08:06:20;;;;;;;3.10;2.08;;;17.30;99.90;;;;;;5068153;28;20020;-63
2023/05/07 08:08:46;;;;;;;3.90;1.45;;;17.30;99.90;;;;;;5069607;28;20024;-63
2023/05/07 08:11:11;;;;;;;6.82;2.00;;;17.30;99.90;;;;;;5067457;28;20434;-61
2023/05/07 08:13:38;;;;;;;4.63;2.80;;;17.40;99.90;;;;;;5065843;28;20105;-61
2023/05/07 08:16:04;;;;;;;5.32;2.20;;;17.60;99.90;;;;;;5068002;28;20074;-63
2023/05/07 08:18:30;;;;;;;7.03;2.28;;;17.50;99.90;;;;;;5067681;28;20100;-60
2023/05/07 08:20:55;;;;;;;3.85;1.70;;;17.60;99.90;;;;;;5072379;28;20591;-64
2023/05/07 08:23:21;;;;;;;6.13;2.03;;;17.70;99.90;;;;;;5072922;28;20021;-62
2023/05/07 08:25:48;;;;;;;4.70;1.98;;;17.70;99.90;;;;;;5069333;28;20035;-63
2023/05/07 08:28:13;;;;;;;2.92;1.77;;;17.80;99.90;;;;;;5066769;28;20037;-58
2023/05/07 08:30:39;;;;;;;4.82;2.15;;;17.90;99.90;;;;;;5064387;28;20032;-58
2023/05/07 08:33:04;;;;;;;5.18;2.13;;;17.90;99.90;;;;;;5063622;28;20036;-63
2023/05/07 08:35:30;;;;;;;5.25;1.92;;;17.90;99.90;;;;;;5065799;28;20389;-61
2023/05/07 08:37:56;;;;;;;5.70;1.80;;;18.00;99.90;;;;;;5069038;28;20029;-63
2023/05/07 08:40:25;;;;;;;4.30;2.28;;;18.10;99.90;;;;;;5060802;28;20082;-63
2023/05/07 08:42:52;;;;;;;3.92;2.00;;;18.20;99.90;;;;;;5062746;28;20113;-60
2023/05/07 08:45:19;;;;;;;1.75;1.60;;;18.20;99.90;;;;;;5063450;28;20024;-61
2023/05/07 08:47:50;;;;;;;5.13;1.92;;;18.20;99.90;;;;;;5059780;28;20096;-64
2023/05/07 08:50:16;;;;;;;8.30;1.70;;;18.30;99.90;;;;;;5063742;28;20060;-64
2023/05/07 08:52:42;;;;;;;2.83;2.03;;;18.40;99.90;;;;;;5064877;28;20228;-62
2023/05/07 08:55:09;;;;;;;4.00;1.90;;;18.30;99.90;;;;;;5065856;28;20043;-63
2023/05/07 08:57:35;;;;;;;7.40;2.22;;;18.30;99.90;;;;;;5065180;28;20039;-64
2023/05/07 09:00:01;;;;;;;8.25;2.30;;;18.40;99.90;;;;;;5068309;28;20024;-60
2023/05/07 09:02:26;;;;;;;2.83;2.17;;;18.50;99.90;;;;;;5069386;28;20564;-61
2023/05/07 09:04:52;;;;;;;2.70;1.90;;;18.70;99.90;;;;;;5068962;28;20152;-62
2023/05/07 09:07:19;;;;;;;11.38;1.63;;;18.80;99.90;;;;;;5068082;28;20036;-61
2023/05/07 09:09:46;;;;;;;6.78;2.55;;;18.80;99.90;;;;;;5071283;28;20353;-61
2023/05/07 09:12:11;;;;;;;5.03;2.47;;;18.90;99.90;;;;;;5067001;28;20027;-59
2023/05/07 09:14:37;;;;;;;1.98;1.67;;;19.00;99.90;;;;;;5066359;28;20459;-63
2023/05/07 09:17:03;;;;;;;3.70;2.00;;;19.10;99.90;;;;;;5062725;28;20035;-60
2023/05/07 09:19:29;;;;;;;7.65;1.95;;;19.00;99.90;;;;;;5061682;28;20028;-63
2023/05/07 09:22:03;;;;;;;2.00;1.42;;;19.20;99.90;;;;;;5074341;28;20360;-60
2023/05/07 09:24:33;;;;;;;2.20;1.40;;;19.30;99.90;;;;;;5069540;28;20513;-62
2023/05/07 09:27:00;;;;;;;7.47;1.88;;;19.50;99.90;;;;;;5067523;28;20028;-62
2023/05/07 09:29:26;;;;;;;5.15;2.25;;;19.60;99.90;;;;;;5066938;28;20107;-62
2023/05/07 09:31:51;;;;;;;3.92;1.60;;;19.70;99.90;;;;;;5066261;28;20132;-60
2023/05/07 09:34:17;;;;;;;3.90;1.98;;;19.80;99.90;;;;;;5068774;28;20106;-62
2023/05/07 09:36:42;;;;;;;2.13;1.67;;;20.00;99.90;;;;;;5071203;28;20055;-61
2023/05/07 09:39:08;;;;;;;4.07;1.90;;;20.10;99.90;;;;;;5062803;28;20095;-63
2023/05/07 09:41:44;;;;;;;3.92;1.63;;;20.40;99.90;;;;;;5068809;28;20369;-62
2023/05/07 09:44:10;;;;;;;2.92;1.77;;;20.40;99.90;;;;;;5068655;28;20032;-63
2023/05/07 09:46:38;;;;;;;6.97;1.80;;;20.60;99.90;;;;;;5068418;28;20041;-62
2023/05/07 09:49:13;;;;;;;10.18;3.03;;;20.80;99.90;;;;;;5071452;28;20512;-62
2023/05/07 09:51:48;;;;;;;4.60;1.70;;;20.80;99.90;;;;;;5061085;28;20136;-58
2023/05/07 09:54:14;;;;;;;2.38;1.70;;;20.90;99.90;;;;;;5072893;28;20044;-64
2023/05/07 09:56:41;;;;;;;5.50;2.17;;;20.80;99.90;;;;;;5067237;28;20103;-61
2023/05/07 09:59:10;;;;;;;3.15;1.70;;;20.80;99.90;;;;;;5068351;28;20035;-62
2023/05/07 10:01:37;;;;;;;5.90;2.25;;;20.70;99.90;;;;;;5063875;28;20675;-63
2023/05/07 10:04:08;;;;;;;8.50;2.05;;;20.70;99.90;;;;;;5069284;28;20052;-59
2023/05/07 10:06:34;;;;;;;3.15;1.90;;;20.80;99.90;;;;;;5067912;28;20025;-62
2023/05/07 10:09:01;;;;;;;3.25;1.50;;;20.90;99.90;;;;;;5061889;28;20039;-62
2023/05/07 10:11:28;;;;;;;1.85;1.40;;;20.80;99.90;;;;;;5068306;28;20093;-62
2023/05/07 10:13:54;;;;;;;6.90;1.27;;;20.90;99.90;;;;;;5069737;28;20117;-62
2023/05/07 10:16:21;;;;;;;3.78;1.55;;;21.20;99.90;;;;;;5068562;28;20100;-62
2023/05/07 10:18:48;;;;;;;3.50;1.90;;;21.40;99.90;;;;;;5064136;28;20103;-63
2023/05/07 10:21:23;;;;;;;2.15;1.70;;;21.70;99.90;;;;;;5066997;28;20028;-62
2023/05/07 10:23:51;;;;;;;4.72;1.80;;;21.80;99.90;;;;;;5068633;28;20032;-62
2023/05/07 10:26:20;;;;;;;2.15;1.55;;;22.00;99.90;;;;;;5066151;28;20104;-63
2023/05/07 10:28:50;;;;;;;2.70;1.70;;;22.20;99.90;;;;;;5071881;28;20024;-63
2023/05/07 10:31:54;;;;;;;2.80;1.33;;;22.20;99.90;;;;;;5059532;28;20031;-61
2023/05/07 10:34:25;;;;;;;2.45;1.50;;;22.30;99.90;;;;;;5065976;28;20035;-63
2023/05/07 10:36:52;;;;;;;10.45;2.22;;;22.20;99.90;;;;;;5067945;28;20025;-61
2023/05/07 10:39:19;;;;;;;2.17;1.42;;;22.00;99.90;;;;;;5071803;28;20024;-62
2023/05/07 10:41:45;;;;;;;3.03;1.73;;;21.70;99.90;;;;;;5065307;28;20036;-63
2023/05/07 10:44:11;;;;;;;3.58;1.70;;;21.60;99.90;;;;;;5069229;28;20454;-62
2023/05/07 10:46:36;;;;;;;3.53;1.60;;;21.80;99.90;;;;;;5066781;28;20464;-63
2023/05/07 10:49:08;;;;;;;2.97;1.63;;;22.30;99.90;;;;;;5063857;28;20103;-63
2023/05/07 10:51:35;;;;;;;2.50;1.52;;;22.40;99.90;;;;;;5063965;28;20025;-63
2023/05/07 10:54:10;;;;;;;3.08;1.67;;;22.70;99.90;;;;;;5068748;28;20630;-61
2023/05/07 10:56:39;;;;;;;9.00;1.63;;;22.80;99.90;;;;;;5065874;28;20025;-63
2023/05/07 10:59:41;;;;;;;5.60;1.75;;;22.70;99.90;;;;;;5068787;28;20016;-63
2023/05/07 11:02:09;;;;;;;2.17;1.40;;;22.80;99.90;;;;;;5061475;28;20033;-63
2023/05/07 11:04:34;;;;;;;2.00;1.40;;;23.10;99.90;;;;;;5069467;28;20602;-62
2023/05/07 11:07:06;;;;;;;2.75;1.48;;;23.50;99.90;;;;;;5067251;28;20036;-62
2023/05/07 11:09:55;;;;;;;4.80;1.60;;;23.50;99.90;;;;;;5063142;28;20107;-63
2023/05/07 11:12:36;;;;;;;3.53;1.00;;;23.80;99.90;;;;;;5069652;28;20184;-63
2023/05/07 11:15:09;;;;;;;5.97;1.60;;;24.40;99.90;;;;;;5069251;28;20360;-63
2023/05/07 11:17:51;;;;;;;2.50;1.55;;;24.70;99.90;;;;;;5065751;28;20147;-63
2023/05/07 11:20:17;;;;;;;2.42;1.58;;;24.80;99.90;;;;;;5064785;28;20052;-63
2023/05/07 11:22:42;;;;;;;7.65;1.60;;;25.10;99.90;;;;;;5069128;28;20515;-63
2023/05/07 11:25:08;;;;;;;2.22;1.05;;;25.20;99.90;;;;;;5070566;28;20060;-64
2023/05/07 11:27:34;;;;;;;4.57;1.67;;;25.40;99.90;;;;;;5063690;28;20023;-63
2023/05/07 11:30:03;;;;;;;2.10;1.20;;;24.80;99.90;;;;;;5068274;28;20037;-61
2023/05/07 11:32:30;;;;;;;2.80;1.25;;;24.70;99.90;;;;;;5058236;28;20078;-64
2023/05/07 11:34:58;;;;;;;4.13;1.00;;;24.30;99.90;;;;;;5059048;28;20032;-60
2023/05/07 11:37:25;;;;;;;2.53;1.40;;;24.20;99.90;;;;;;5073990;28;20044;-62
2023/05/07 11:39:58;;;;;;;4.03;1.40;;;24.00;99.90;;;;;;5067074;28;20047;-62
2023/05/07 11:42:37;;;;;;;2.30;0.80;;;23.90;99.90;;;;;;5070245;28;20070;-63
2023/05/07 11:45:05;;;;;;;3.78;1.30;;;23.80;99.90;;;;;;5061938;28;20166;-63
2023/05/07 11:47:31;;;;;;;2.75;1.50;;;23.40;99.90;;;;;;5065200;28;20629;-62
2023/05/07 11:50:01;;;;;;;3.30;1.27;;;22.90;99.90;;;;;;5068606;28;20434;-62
2023/05/07 11:52:27;;;;;;;5.43;1.30;;;23.00;99.90;;;;;;5066444;28;20028;-63
2023/05/07 11:54:57;;;;;;;4.38;1.40;;;22.70;99.90;;;;;;5048817;28;20476;-64
2023/05/07 11:57:24;;;;;;;1.63;1.30;;;22.50;99.90;;;;;;5044969;28;20024;-63
2023/05/07 11:59:54;;;;;;;2.72;1.20;;;22.40;99.90;;;;;;5070173;28;20029;-65
2023/05/07 12:02:19;;;;;;;3.63;1.23;;;22.40;99.90;;;;;;5066354;28;20446;-59
2023/05/07 12:04:45;;;;;;;3.08;1.33;;;22.60;99.90;;;;;;5069725;28;20028;-64
2023/05/07 12:07:15;;;;;;;2.50;1.50;;;22.40;99.90;;;;;;5070029;28;20067;-61
2023/05/07 12:09:44;;;;;;;2.35;1.05;;;22.50;99.90;;;;;;5061616;28;20538;-64
2023/05/07 12:12:10;;;;;;;2.08;1.40;;;22.40;99.90;;;;;;5069791;28;20032;-63
2023/05/07 12:14:40;;;;;;;2.42;1.17;;;22.30;99.90;;;;;;5067917;28;20077;-63
2023/05/07 12:17:09;;;;;;;5.75;1.48;;;22.40;99.90;;;;;;5051059;28;20028;-62
2023/05/07 12:19:36;;;;;;;1.85;1.40;;;22.50;99.90;;;;;;5067375;28;20033;-64
2023/05/07 12:22:07;;;;;;;3.33;1.60;;;22.10;99.90;;;;;;5068333;28;20480;-63
2023/05/07 12:24:49;;;;;;;5.43;1.60;;;22.00;99.90;;;;;;5067111;28;20040;-63
2023/05/07 12:27:15;;;;;;;4.03;1.50;;;22.20;99.90;;;;;;5088281;28;20035;-63
2023/05/07 12:29:48;;;;;;;2.50;1.38;;;21.90;99.90;;;;;;5067890;28;20025;-62
2023/05/07 12:32:15;;;;;;;3.53;1.75;;;21.90;99.90;;;;;;5045937;28;20020;-65
2023/05/07 12:34:41;;;;;;;3.25;1.60;;;21.80;99.90;;;;;;5068151;28;20033;-63
2023/05/07 12:37:07;;;;;;;2.05;1.40;;;21.60;99.90;;;;;;5064454;28;20021;-62
2023/05/07 12:39:33;;;;;;;1.88;1.60;;;21.60;99.90;;;;;;5066243;28;20024;-63
2023/05/07 12:41:59;;;;;;;1.58;1.45;;;21.60;99.90;;;;;;5069398;28;20388;-64